createdAt,value
2019-03-31T00:00:25.279Z,98835.95
2019-03-31T00:02:53.512Z,98832.86
2019-03-31T00:05:21.733Z,98831.58
2019-03-31T00:07:49.970Z,98830.23
2019-03-31T00:10:18.189Z,98833.88
2019-03-31T00:12:46.424Z,98833.95
2019-03-31T00:15:14.716Z,98837.11
2019-03-31T00:17:43.276Z,98836.24
2019-03-31T00:20:11.488Z,98837.19
2019-03-31T00:22:39.735Z,98835.92
2019-03-31T00:25:07.960Z,98834.17
2019-03-31T00:27:36.195Z,98845.81
2019-03-31T00:30:05.081Z,98840.06
2019-03-31T00:32:33.312Z,98845.92
2019-03-31T00:35:02.228Z,98841.88
2019-03-31T00:37:30.464Z,98836.58
2019-03-31T00:39:58.679Z,98838.47
2019-03-31T00:42:26.910Z,98834.43
2019-03-31T00:44:55.131Z,98829.05
2019-03-31T00:47:23.366Z,98829.05
2019-03-31T00:49:51.578Z,98822.83
2019-03-31T00:52:19.806Z,98826.00
2019-03-31T00:54:48.030Z,98826.47
2019-03-31T00:57:16.243Z,98830.98
2019-03-31T00:59:44.459Z,98827.89
2019-03-31T01:02:14.586Z,98836.03
2019-03-31T01:04:43.279Z,98832.51
2019-03-31T01:07:11.496Z,98833.38
2019-03-31T01:09:39.767Z,98837.89
2019-03-31T01:12:07.982Z,98839.31
2019-03-31T01:14:36.197Z,98836.69
2019-03-31T01:17:06.322Z,98841.67
2019-03-31T01:19:34.981Z,98841.27
2019-03-31T01:22:03.201Z,98834.14
2019-03-31T01:24:31.414Z,98839.12
2019-03-31T01:26:59.630Z,98841.81
2019-03-31T01:29:28.184Z,98842.76
2019-03-31T01:31:56.771Z,98839.67
2019-03-31T01:34:25.092Z,98838.39
2019-03-31T01:36:53.726Z,98838.39
2019-03-31T01:39:23.195Z,98830.36
2019-03-31T01:41:51.714Z,98840.17
2019-03-31T01:44:19.941Z,98836.28
2019-03-31T01:46:48.153Z,98834.87
2019-03-31T01:49:16.365Z,98828.22
2019-03-31T01:51:44.918Z,98835.48
2019-03-31T01:54:13.139Z,98829.70
2019-03-31T01:56:44.625Z,98830.58
2019-03-31T01:59:11.898Z,98834.28
2019-03-31T02:01:40.400Z,98830.79
2019-03-31T02:04:10.255Z,98842.89
2019-03-31T02:06:38.471Z,98849.22
2019-03-31T02:09:06.969Z,98855.51
2019-03-31T02:11:35.174Z,98853.29
2019-03-31T02:14:03.386Z,98852.02
2019-03-31T02:16:31.606Z,98853.91
2019-03-31T02:19:00.076Z,98855.79
2019-03-31T02:21:28.286Z,98860.30
2019-03-31T02:23:56.811Z,98859.42
2019-03-31T02:26:25.295Z,98851.35
2019-03-31T02:28:53.879Z,98854.04
2019-03-31T02:31:22.102Z,98856.80
2019-03-31T02:33:50.651Z,98853.34
2019-03-31T02:36:19.109Z,98856.47
2019-03-31T02:38:47.323Z,98857.84
2019-03-31T02:41:15.554Z,98858.86
2019-03-31T02:43:43.768Z,98860.20
2019-03-31T02:46:12.319Z,98866.92
2019-03-31T02:48:40.903Z,98855.38
2019-03-31T02:51:09.136Z,98864.38
2019-03-31T02:53:39.662Z,98863.98
2019-03-31T02:56:08.000Z,98867.20
2019-03-31T02:58:36.191Z,98871.23
2019-03-31T03:01:04.415Z,98867.27
2019-03-31T03:03:32.915Z,98865.49
2019-03-31T03:06:01.153Z,98860.11
2019-03-31T03:08:29.685Z,98869.12
2019-03-31T03:10:58.729Z,98871.48
2019-03-31T03:13:29.344Z,98867.45
2019-03-31T03:16:01.091Z,98868.45
2019-03-31T03:18:29.310Z,98876.05
2019-03-31T03:20:57.807Z,98879.20
2019-03-31T03:23:26.391Z,98879.28
2019-03-31T03:25:56.760Z,98875.72
2019-03-31T03:28:25.190Z,98879.81
2019-03-31T03:30:53.914Z,98881.56
2019-03-31T03:33:22.388Z,98884.80
2019-03-31T03:35:50.601Z,98876.76
2019-03-31T03:38:18.817Z,98879.41
2019-03-31T03:40:47.039Z,98870.24
2019-03-31T03:43:15.275Z,98886.23
2019-03-31T03:45:43.843Z,98888.05
2019-03-31T03:48:12.056Z,98887.64
2019-03-31T03:50:40.602Z,98895.78
2019-03-31T03:53:09.220Z,98896.31
2019-03-31T03:55:37.447Z,98899.88
2019-03-31T03:58:05.659Z,98899.07
2019-03-31T04:00:34.154Z,98895.98
2019-03-31T04:03:02.391Z,98893.29
2019-03-31T04:05:30.618Z,98895.11
2019-03-31T04:07:58.827Z,98900.05
2019-03-31T04:10:45.347Z,98902.80
2019-03-31T04:13:13.577Z,98910.86
2019-03-31T04:15:41.792Z,98907.70
2019-03-31T04:18:10.277Z,98907.84
2019-03-31T04:20:39.475Z,98913.68
2019-03-31T04:23:08.001Z,98925.30
2019-03-31T04:25:36.238Z,98926.64
2019-03-31T04:28:04.452Z,98927.12
2019-03-31T04:30:32.746Z,98927.59
2019-03-31T04:33:00.981Z,98926.72
2019-03-31T04:35:29.536Z,98933.37
2019-03-31T04:37:57.748Z,98935.25
2019-03-31T04:40:26.300Z,98930.84
2019-03-31T04:42:54.506Z,98939.38
2019-03-31T04:45:22.721Z,98937.09
2019-03-31T04:47:50.940Z,98936.28
2019-03-31T04:50:19.155Z,98934.53
2019-03-31T04:52:47.370Z,98939.47
2019-03-31T04:55:15.585Z,98947.13
2019-03-31T04:57:44.122Z,98946.66
2019-03-31T05:00:12.344Z,98950.28
2019-03-31T05:02:40.560Z,98952.09
2019-03-31T05:05:08.776Z,98961.56
2019-03-31T05:07:37.329Z,98973.72
2019-03-31T05:10:06.534Z,98979.03
2019-03-31T05:12:34.751Z,98988.50
2019-03-31T05:15:02.973Z,98986.34
2019-03-31T05:17:31.564Z,98999.78
2019-03-31T05:20:00.353Z,98995.28
2019-03-31T05:22:28.725Z,98996.75
2019-03-31T05:24:57.202Z,98995.41
2019-03-31T05:27:25.416Z,99003.00
2019-03-31T05:29:53.626Z,99006.66
2019-03-31T05:32:21.837Z,99013.44
2019-03-31T05:34:50.046Z,99014.84
2019-03-31T05:37:18.266Z,99022.02
2019-03-31T05:39:46.469Z,99027.92
2019-03-31T05:42:14.689Z,99026.98
2019-03-31T05:44:42.898Z,99031.55
2019-03-31T05:47:11.109Z,99040.42
2019-03-31T05:49:39.654Z,99037.33
2019-03-31T05:52:07.879Z,99036.45
2019-03-31T05:54:36.091Z,99036.39
2019-03-31T05:57:04.306Z,99049.48
2019-03-31T05:59:32.516Z,99059.35
2019-03-31T06:02:01.032Z,99059.76
2019-03-31T06:04:33.393Z,99053.57
2019-03-31T06:06:59.197Z,99059.88
2019-03-31T06:09:27.718Z,99063.38
2019-03-31T06:11:55.936Z,99072.44
2019-03-31T06:14:24.140Z,99070.63
2019-03-31T06:16:52.356Z,99071.56
2019-03-31T06:19:20.907Z,99075.59
2019-03-31T06:21:49.135Z,99079.63
2019-03-31T06:24:17.347Z,99083.20
2019-03-31T06:26:45.566Z,99082.34
2019-03-31T06:29:14.116Z,99093.05
2019-03-31T06:31:42.339Z,99089.92
2019-03-31T06:34:10.872Z,99092.61
2019-03-31T06:36:39.084Z,99093.55
2019-03-31T06:39:08.142Z,99098.05
2019-03-31T06:41:36.625Z,99100.27
2019-03-31T06:44:04.837Z,99098.52
2019-03-31T06:46:33.031Z,99102.08
2019-03-31T06:49:01.249Z,99102.08
2019-03-31T06:51:29.456Z,99107.85
2019-03-31T06:53:57.661Z,99120.41
2019-03-31T06:56:26.177Z,99114.16
2019-03-31T06:58:54.862Z,99109.72
2019-03-31T07:01:23.077Z,99104.81
2019-03-31T07:03:51.279Z,99110.13
2019-03-31T07:06:19.489Z,99113.75
2019-03-31T07:08:47.706Z,99116.84
2019-03-31T07:11:16.241Z,99115.04
2019-03-31T07:13:44.723Z,99118.60
2019-03-31T07:16:12.931Z,99114.10
2019-03-31T07:18:42.005Z,99118.13
2019-03-31T07:21:10.219Z,99126.66
2019-03-31T07:23:38.435Z,99125.31
2019-03-31T07:26:06.643Z,99127.13
2019-03-31T07:28:35.196Z,99126.25
2019-03-31T07:31:03.684Z,99121.34
2019-03-31T07:33:31.893Z,99126.72
2019-03-31T07:36:00.377Z,99126.72
2019-03-31T07:38:38.904Z,99127.13
2019-03-31T07:41:11.923Z,99138.28
2019-03-31T07:43:29.004Z,99131.56
2019-03-31T07:45:57.212Z,99131.95
2019-03-31T07:48:25.752Z,99135.39
2019-03-31T07:50:53.952Z,99138.89
2019-03-31T07:53:22.160Z,99134.34
2019-03-31T07:55:50.363Z,99135.59
2019-03-31T07:58:18.941Z,99135.13
2019-03-31T08:00:47.129Z,99140.39
2019-03-31T08:03:15.616Z,99145.59
2019-03-31T08:05:44.296Z,99145.17
2019-03-31T08:08:12.644Z,99151.44
2019-03-31T08:10:40.862Z,99152.17
2019-03-31T08:13:09.447Z,99148.54
2019-03-31T08:15:37.662Z,99153.52
2019-03-31T08:18:06.348Z,99152.58
2019-03-31T08:20:34.624Z,99155.38
2019-03-31T08:23:03.151Z,99155.41
2019-03-31T08:25:31.360Z,99159.01
2019-03-31T08:27:59.576Z,99159.50
2019-03-31T08:30:28.071Z,99166.23
2019-03-31T08:32:56.543Z,99169.77
2019-03-31T08:35:24.749Z,99171.52
2019-03-31T08:37:52.976Z,99181.34
2019-03-31T08:40:21.182Z,99179.11
2019-03-31T08:42:49.403Z,99185.89
2019-03-31T08:45:17.609Z,99186.33
2019-03-31T08:47:45.828Z,99194.40
2019-03-31T08:50:14.031Z,99198.02
2019-03-31T08:52:42.259Z,99203.38
2019-03-31T08:55:10.461Z,99204.19
2019-03-31T08:57:38.681Z,99205.94
2019-03-31T09:00:09.647Z,99207.75
2019-03-31T09:02:38.123Z,99207.28
2019-03-31T09:05:08.218Z,99216.70
2019-03-31T09:07:36.416Z,99217.98
2019-03-31T09:10:07.464Z,99225.52
2019-03-31T09:12:36.039Z,99226.34
2019-03-31T09:15:06.553Z,99221.77
2019-03-31T09:17:34.757Z,99229.81
2019-03-31T09:20:03.244Z,99226.66
2019-03-31T09:22:31.477Z,99225.78
2019-03-31T09:24:59.682Z,99222.65
2019-03-31T09:27:27.896Z,99224.94
2019-03-31T09:29:56.088Z,99227.16
2019-03-31T09:32:24.289Z,99225.80
2019-03-31T09:34:52.496Z,99230.72
2019-03-31T09:37:21.046Z,99228.94
2019-03-31T09:39:49.251Z,99222.24
2019-03-31T09:42:17.710Z,99229.84
2019-03-31T09:44:46.003Z,99239.31
2019-03-31T09:47:14.208Z,99233.59
2019-03-31T09:49:42.423Z,99228.73
2019-03-31T09:52:10.621Z,99235.05
2019-03-31T09:54:38.839Z,99228.80
2019-03-31T09:57:07.030Z,99234.64
2019-03-31T09:59:35.531Z,99232.89
2019-03-31T10:02:04.016Z,99236.05
2019-03-31T10:04:32.242Z,99233.82
2019-03-31T10:07:00.430Z,99234.70
2019-03-31T10:09:28.643Z,99240.48
2019-03-31T10:11:56.837Z,99236.92
2019-03-31T10:14:25.400Z,99238.27
2019-03-31T10:16:53.594Z,99238.61
2019-03-31T10:19:22.155Z,99234.58
2019-03-31T10:21:50.633Z,99232.30
2019-03-31T10:24:18.846Z,99240.19
2019-03-31T10:26:47.041Z,99240.98
2019-03-31T10:29:15.255Z,99234.60
2019-03-31T10:31:43.745Z,99238.98
2019-03-31T10:34:12.218Z,99240.73
2019-03-31T10:36:44.878Z,99246.87
2019-03-31T10:39:10.631Z,99244.56
2019-03-31T10:41:38.830Z,99240.35
2019-03-31T10:44:07.051Z,99240.29
2019-03-31T10:46:35.241Z,99245.55
2019-03-31T10:49:03.452Z,99247.34
2019-03-31T10:51:31.946Z,99246.80
2019-03-31T10:54:00.162Z,99247.68
2019-03-31T10:56:28.369Z,99252.13
2019-03-31T10:58:56.564Z,99250.66
2019-03-31T11:01:24.770Z,99251.41
2019-03-31T11:03:52.962Z,99246.91
2019-03-31T11:06:21.166Z,99243.34
2019-03-31T11:08:49.672Z,99247.78
2019-03-31T11:11:17.869Z,99241.99
2019-03-31T11:13:46.434Z,99246.00
2019-03-31T11:16:14.904Z,99244.19
2019-03-31T11:18:43.099Z,99249.91
2019-03-31T11:21:12.939Z,99248.50
2019-03-31T11:23:41.133Z,99256.45
2019-03-31T11:26:09.645Z,99258.61
2019-03-31T11:28:37.844Z,99255.45
2019-03-31T11:31:06.038Z,99255.45
2019-03-31T11:33:34.248Z,99265.72
2019-03-31T11:36:02.452Z,99266.19
2019-03-31T11:38:30.654Z,99268.35
2019-03-31T11:40:58.856Z,99273.20
2019-03-31T11:43:27.392Z,99274.48
2019-03-31T11:45:55.852Z,99274.92
2019-03-31T11:48:24.059Z,99277.02
2019-03-31T11:50:52.612Z,99278.78
2019-03-31T11:53:20.811Z,99274.27
2019-03-31T11:55:49.011Z,99276.55
2019-03-31T11:58:17.218Z,99277.41
2019-03-31T12:00:53.042Z,99265.23
2019-03-31T12:03:21.242Z,99272.23
2019-03-31T12:05:49.442Z,99265.44
2019-03-31T12:08:17.638Z,99266.25
2019-03-31T12:10:46.201Z,99264.03
2019-03-31T12:13:14.399Z,99259.53
2019-03-31T12:15:42.951Z,99267.51
2019-03-31T12:18:11.152Z,99261.87
2019-03-31T12:20:39.363Z,99263.46
2019-03-31T12:23:07.610Z,99263.46
2019-03-31T12:25:35.778Z,99262.05
2019-03-31T12:28:04.327Z,99268.72
2019-03-31T12:30:32.524Z,99263.46
2019-03-31T12:33:00.727Z,99263.56
2019-03-31T12:35:28.933Z,99260.52
2019-03-31T12:37:57.135Z,99259.77
2019-03-31T12:40:30.570Z,99264.75
2019-03-31T12:42:58.783Z,99257.20
2019-03-31T12:45:26.989Z,99263.94
2019-03-31T12:47:55.562Z,99263.06
2019-03-31T12:50:23.757Z,99255.48
2019-03-31T12:52:52.056Z,99259.12
2019-03-31T12:55:20.257Z,99263.56
2019-03-31T12:57:51.619Z,99262.59
2019-03-31T13:00:18.989Z,99259.70
2019-03-31T13:02:47.204Z,99250.09
2019-03-31T13:05:15.393Z,99254.37
2019-03-31T13:07:55.724Z,99246.70
2019-03-31T13:10:13.534Z,99244.48
2019-03-31T13:12:41.746Z,99245.02
2019-03-31T13:15:09.945Z,99245.55
2019-03-31T13:17:38.447Z,99243.73
2019-03-31T13:20:07.117Z,99241.38
2019-03-31T13:22:35.335Z,99240.38
2019-03-31T13:25:04.473Z,99241.02
2019-03-31T13:27:32.689Z,99240.13
2019-03-31T13:30:00.890Z,99236.93
2019-03-31T13:32:29.442Z,99235.71
2019-03-31T13:34:57.638Z,99230.02
2019-03-31T13:37:26.202Z,99230.41
2019-03-31T13:39:54.396Z,99230.89
2019-03-31T13:42:22.965Z,99230.02
2019-03-31T13:44:51.162Z,99227.17
2019-03-31T13:47:19.716Z,99226.80
2019-03-31T13:49:47.914Z,99223.48
2019-03-31T13:52:16.122Z,99227.12
2019-03-31T13:54:44.318Z,99225.16
2019-03-31T13:57:13.371Z,99231.80
2019-03-31T13:59:42.126Z,99229.69
2019-03-31T14:02:10.335Z,99225.17
2019-03-31T14:04:51.057Z,99220.34
2019-03-31T14:07:08.467Z,99215.20
2019-03-31T14:09:37.075Z,99218.55
2019-03-31T14:12:05.282Z,99217.49
2019-03-31T14:14:33.479Z,99214.80
2019-03-31T14:17:01.695Z,99220.22
2019-03-31T14:19:29.889Z,99222.52
2019-03-31T14:21:58.138Z,99226.56
2019-03-31T14:24:27.143Z,99225.77
2019-03-31T14:26:55.512Z,99220.52
2019-03-31T14:29:23.706Z,99223.44
2019-03-31T14:31:52.255Z,99221.69
2019-03-31T14:34:20.533Z,99218.16
2019-03-31T14:36:48.733Z,99212.91
2019-03-31T14:39:17.375Z,99217.42
2019-03-31T14:41:45.579Z,99216.41
2019-03-31T14:44:13.778Z,99216.33
2019-03-31T14:46:42.326Z,99215.47
2019-03-31T14:49:10.527Z,99216.90
2019-03-31T14:51:38.722Z,99214.42
2019-03-31T14:54:16.110Z,99217.05
2019-03-31T14:56:44.847Z,99211.84
2019-03-31T14:59:14.731Z,99217.42
2019-03-31T15:01:42.833Z,99215.81
2019-03-31T15:04:11.030Z,99211.41
2019-03-31T15:06:39.226Z,99214.25
2019-03-31T15:09:08.830Z,99207.66
2019-03-31T15:11:38.033Z,99212.72
2019-03-31T15:14:06.709Z,99215.93
2019-03-31T15:16:35.776Z,99217.23
2019-03-31T15:19:04.691Z,99213.92
2019-03-31T15:21:33.854Z,99214.80
2019-03-31T15:24:02.064Z,99208.72
2019-03-31T15:26:30.274Z,99211.95
2019-03-31T15:28:58.479Z,99210.70
2019-03-31T15:31:26.974Z,99205.08
2019-03-31T15:33:55.542Z,99211.16
2019-03-31T15:36:23.744Z,99212.25
2019-03-31T15:38:52.295Z,99212.09
2019-03-31T15:41:21.550Z,99208.60
2019-03-31T15:43:50.091Z,99209.55
2019-03-31T15:46:18.557Z,99201.56
2019-03-31T15:48:47.039Z,99211.25
2019-03-31T15:51:15.267Z,99209.02
2019-03-31T15:53:43.467Z,99208.16
2019-03-31T15:56:11.668Z,99202.80
2019-03-31T15:58:40.143Z,99204.98
2019-03-31T16:01:08.339Z,99206.33
2019-03-31T16:03:38.011Z,99202.75
2019-03-31T16:06:06.479Z,99206.01
2019-03-31T16:08:34.681Z,99207.91
2019-03-31T16:11:04.818Z,99213.05
2019-03-31T16:13:33.390Z,99213.12
2019-03-31T16:16:01.591Z,99209.66
2019-03-31T16:18:29.794Z,99212.76
2019-03-31T16:20:57.990Z,99212.36
2019-03-31T16:23:26.201Z,99210.53
2019-03-31T16:25:56.038Z,99203.39
2019-03-31T16:28:24.574Z,99209.73
2019-03-31T16:30:52.775Z,99208.93
2019-03-31T16:33:20.979Z,99204.88
2019-03-31T16:35:49.517Z,99206.30
2019-03-31T16:38:20.709Z,99210.50
2019-03-31T16:40:48.906Z,99205.22
2019-03-31T16:43:17.110Z,99207.51
2019-03-31T16:45:45.574Z,99210.35
2019-03-31T16:48:13.778Z,99211.84
2019-03-31T16:50:42.340Z,99210.56
2019-03-31T16:53:10.823Z,99212.63
2019-03-31T16:55:39.399Z,99215.37
2019-03-31T16:58:09.483Z,99214.56
2019-03-31T17:00:37.897Z,99212.06
2019-03-31T17:03:06.098Z,99215.91
2019-03-31T17:05:34.306Z,99220.75
2019-03-31T17:08:02.514Z,99216.67
2019-03-31T17:10:30.710Z,99227.45
2019-03-31T17:12:59.185Z,99225.27
2019-03-31T17:15:27.370Z,99228.91
2019-03-31T17:17:55.929Z,99228.10
2019-03-31T17:20:24.134Z,99230.39
2019-03-31T17:22:52.690Z,99236.77
2019-03-31T17:25:22.811Z,99241.34
2019-03-31T17:27:51.307Z,99240.56
2019-03-31T17:30:19.876Z,99234.38
2019-03-31T17:32:48.075Z,99235.85
2019-03-31T17:35:16.292Z,99235.05
2019-03-31T17:37:44.473Z,99230.70
2019-03-31T17:40:12.975Z,99232.59
2019-03-31T17:42:41.177Z,99230.50
2019-03-31T17:45:09.727Z,99234.20
2019-03-31T17:47:37.930Z,99237.40
2019-03-31T17:50:06.217Z,99228.58
2019-03-31T17:52:34.421Z,99236.79
2019-03-31T17:55:02.719Z,99233.34
2019-03-31T17:57:31.017Z,99235.73
2019-03-31T17:59:59.218Z,99233.71
2019-03-31T18:02:27.772Z,99237.47
2019-03-31T18:04:56.353Z,99238.98
2019-03-31T18:07:24.550Z,99239.98
2019-03-31T18:09:53.110Z,99237.92
2019-03-31T18:12:21.586Z,99237.58
2019-03-31T18:14:49.833Z,99241.75
2019-03-31T18:17:18.039Z,99247.26
2019-03-31T18:19:46.254Z,99252.33
2019-03-31T18:22:16.769Z,99251.58
2019-03-31T18:24:45.010Z,99257.45
2019-03-31T18:27:13.481Z,99257.58
2019-03-31T18:29:41.693Z,99260.84
2019-03-31T18:32:10.255Z,99258.27
2019-03-31T18:34:38.467Z,99254.83
2019-03-31T18:37:07.013Z,99260.80
2019-03-31T18:39:35.219Z,99259.55
2019-03-31T18:42:03.448Z,99264.98
2019-03-31T18:44:31.664Z,99257.97
2019-03-31T18:46:59.867Z,99261.19
2019-03-31T18:49:28.070Z,99262.63
2019-03-31T18:51:56.280Z,99269.81
2019-03-31T18:54:29.140Z,99265.03
2019-03-31T18:57:04.743Z,99272.28
2019-03-31T18:59:34.577Z,99274.16
2019-03-31T19:02:20.997Z,99276.03
2019-03-31T19:05:09.650Z,99282.84
2019-03-31T19:07:48.352Z,99280.20
2019-03-31T19:13:24.987Z,99288.86
2019-03-31T19:15:55.192Z,99290.32
2019-03-31T19:18:41.221Z,99291.28
2019-03-31T19:21:16.934Z,99297.24
2019-03-31T19:23:46.587Z,99304.95
2019-03-31T19:26:19.153Z,99303.20
2019-03-31T19:29:05.187Z,99306.88
2019-03-31T19:31:35.343Z,99297.97
2019-03-31T19:34:08.106Z,99294.92
2019-03-31T19:36:51.352Z,99301.23
2019-03-31T19:39:37.122Z,99306.14
2019-03-31T19:42:24.838Z,99302.23
2019-03-31T19:44:54.689Z,99310.81
2019-03-31T19:47:27.760Z,99314.84
2019-03-31T19:50:00.380Z,99317.62
2019-03-31T19:52:46.109Z,99311.88
2019-03-31T19:55:31.247Z,99316.84
2019-03-31T19:58:09.926Z,99314.23
2019-03-31T20:00:39.769Z,99317.39
2019-03-31T20:03:18.191Z,99317.51
2019-03-31T20:05:48.031Z,99330.09
2019-03-31T20:08:27.498Z,99321.67
2019-03-31T20:11:01.820Z,99327.51
2019-03-31T20:13:50.046Z,99329.78
2019-03-31T20:16:24.976Z,99332.06
2019-03-31T20:19:10.955Z,99332.64
2019-03-31T20:21:46.775Z,99331.77
2019-03-31T20:24:33.013Z,99335.79
2019-03-31T20:27:14.938Z,99332.25
2019-03-31T20:29:47.718Z,99336.80
2019-03-31T20:32:20.777Z,99335.05
2019-03-31T20:35:00.354Z,99335.56
2019-03-31T20:37:30.545Z,99332.05
2019-03-31T20:40:03.043Z,99337.48
2019-03-31T20:42:35.801Z,99338.87
2019-03-31T20:45:06.391Z,99340.69
2019-03-31T20:47:34.605Z,99338.48
2019-03-31T20:50:03.077Z,99338.07
2019-03-31T20:52:31.518Z,99344.43
2019-03-31T20:54:59.711Z,99346.70
2019-03-31T20:57:28.026Z,99348.98
2019-03-31T20:59:57.835Z,99347.27
2019-03-31T21:02:26.051Z,99349.08
2019-03-31T21:04:54.254Z,99352.72
2019-03-31T21:07:22.480Z,99344.77
2019-03-31T21:09:50.703Z,99346.98
2019-03-31T21:12:19.713Z,99356.91
2019-03-31T21:14:47.927Z,99353.80
2019-03-31T21:17:16.483Z,99361.03
2019-03-31T21:19:45.463Z,99362.43
2019-03-31T21:22:16.059Z,99366.94
2019-03-31T21:24:44.320Z,99365.17
2019-03-31T21:27:13.981Z,99366.53
2019-03-31T21:29:42.282Z,99354.96
2019-03-31T21:32:11.348Z,99362.60
2019-03-31T21:34:39.557Z,99360.90
2019-03-31T21:37:07.786Z,99359.09
2019-03-31T21:39:36.301Z,99364.09
2019-03-31T21:42:04.524Z,99361.48
2019-03-31T21:44:32.717Z,99366.85
2019-03-31T21:47:00.931Z,99368.20
2019-03-31T21:49:29.139Z,99367.78
2019-03-31T21:51:57.348Z,99370.98
2019-03-31T21:54:25.569Z,99368.34
2019-03-31T21:56:54.027Z,99363.54
2019-03-31T21:59:23.872Z,99365.81
2019-03-31T22:01:53.235Z,99374.28
2019-03-31T22:04:21.438Z,99359.15
2019-03-31T22:06:49.655Z,99364.59
2019-03-31T22:09:17.855Z,99362.36
2019-03-31T22:11:46.440Z,99363.75
2019-03-31T22:14:15.028Z,99362.46
2019-03-31T22:16:43.246Z,99366.13
2019-03-31T22:19:11.646Z,99364.37
2019-03-31T22:21:39.856Z,99360.82
2019-03-31T22:24:08.076Z,99357.73
2019-03-31T22:26:36.600Z,99360.01
2019-03-31T22:29:04.827Z,99353.34
2019-03-31T22:31:33.029Z,99358.77
2019-03-31T22:34:01.259Z,99346.69
2019-03-31T22:36:29.456Z,99349.88
2019-03-31T22:38:57.683Z,99346.42
2019-03-31T22:41:25.875Z,99353.08
2019-03-31T22:43:55.744Z,99351.80
2019-03-31T22:46:23.939Z,99349.53
2019-03-31T22:48:52.156Z,99351.39
2019-03-31T22:51:20.360Z,99356.85
2019-03-31T22:53:48.873Z,99349.73
2019-03-31T22:56:17.345Z,99355.14
2019-03-31T22:58:45.564Z,99354.27
2019-03-31T23:01:14.118Z,99353.84
2019-03-31T23:03:42.331Z,99351.22
2019-03-31T23:06:10.791Z,99349.41
2019-03-31T23:08:39.002Z,99346.73
2019-03-31T23:11:07.521Z,99342.77
2019-03-31T23:13:35.737Z,99344.56
2019-03-31T23:16:03.929Z,99344.61
2019-03-31T23:18:32.141Z,99336.56
2019-03-31T23:21:00.341Z,99341.94
2019-03-31T23:23:28.891Z,99341.52
2019-03-31T23:25:57.095Z,99336.66
2019-03-31T23:28:25.307Z,99337.08
2019-03-31T23:30:53.506Z,99338.00
2019-03-31T23:33:22.103Z,99335.73
2019-03-31T23:35:50.580Z,99331.77
2019-03-31T23:38:18.853Z,99329.13
2019-03-31T23:40:47.443Z,99329.08
2019-03-31T23:43:15.695Z,99326.45
2019-03-31T23:45:44.196Z,99330.88
2019-03-31T23:48:12.405Z,99333.98
2019-03-31T23:50:40.615Z,99329.54
2019-03-31T23:53:08.822Z,99329.13
2019-03-31T23:55:37.040Z,99329.13
2019-03-31T23:58:05.252Z,99321.08
